sensor_id;sensor_type;location;lat;lon;timestamp;P1;durP1;ratioP1;P2;durP2;ratioP2
30287;SDS011;17103;48.316;11.558;2022-12-10T00:01:09;14.68;;;9.05;;
30287;SDS011;17103;48.316;11.558;2022-12-10T00:03:38;13.35;;;10.15;;
30287;SDS011;17103;48.316;11.558;2022-12-10T00:06:06;12.82;;;8.88;;
30287;SDS011;17103;48.316;11.558;2022-12-10T00:08:36;14.20;;;9.40;;
30287;SDS011;17103;48.316;11.558;2022-12-10T00:11:03;16.40;;;9.75;;
30287;SDS011;17103;48.316;11.558;2022-12-10T00:13:30;13.52;;;8.38;;
30287;SDS011;17103;48.316;11.558;2022-12-10T00:16:01;12.27;;;8.55;;
30287;SDS011;17103;48.316;11.558;2022-12-10T00:18:31;12.30;;;8.10;;
30287;SDS011;17103;48.316;11.558;2022-12-10T00:21:01;12.52;;;8.45;;
30287;SDS011;17103;48.316;11.558;2022-12-10T00:23:30;12.35;;;8.90;;
30287;SDS011;17103;48.316;11.558;2022-12-10T00:26:09;13.35;;;8.48;;
30287;SDS011;17103;48.316;11.558;2022-12-10T00:28:37;12.30;;;7.57;;
30287;SDS011;17103;48.316;11.558;2022-12-10T00:31:04;12.98;;;9.15;;
30287;SDS011;17103;48.316;11.558;2022-12-10T00:33:35;13.77;;;8.45;;
30287;SDS011;17103;48.316;11.558;2022-12-10T00:36:07;12.55;;;9.43;;
30287;SDS011;17103;48.316;11.558;2022-12-10T00:41:08;12.20;;;8.57;;
30287;SDS011;17103;48.316;11.558;2022-12-10T00:43:48;14.25;;;9.18;;
30287;SDS011;17103;48.316;11.558;2022-12-10T00:46:26;11.98;;;7.63;;
30287;SDS011;17103;48.316;11.558;2022-12-10T00:48:55;13.30;;;8.57;;
30287;SDS011;17103;48.316;11.558;2022-12-10T00:51:23;15.02;;;10.23;;
30287;SDS011;17103;48.316;11.558;2022-12-10T00:53:52;14.43;;;9.73;;
30287;SDS011;17103;48.316;11.558;2022-12-10T00:56:22;11.40;;;7.72;;
30287;SDS011;17103;48.316;11.558;2022-12-10T00:58:50;14.85;;;9.98;;
30287;SDS011;17103;48.316;11.558;2022-12-10T01:01:24;14.43;;;11.00;;
30287;SDS011;17103;48.316;11.558;2022-12-10T01:03:53;16.20;;;11.45;;
30287;SDS011;17103;48.316;11.558;2022-12-10T01:06:24;17.42;;;10.20;;
30287;SDS011;17103;48.316;11.558;2022-12-10T01:08:52;15.95;;;9.38;;
30287;SDS011;17103;48.316;11.558;2022-12-10T01:11:20;12.40;;;8.82;;
30287;SDS011;17103;48.316;11.558;2022-12-10T01:13:51;13.40;;;8.32;;
30287;SDS011;17103;48.316;11.558;2022-12-10T01:16:19;14.50;;;8.80;;
30287;SDS011;17103;48.316;11.558;2022-12-10T01:18:47;12.35;;;8.50;;
30287;SDS011;17103;48.316;11.558;2022-12-10T01:21:16;12.15;;;8.10;;
30287;SDS011;17103;48.316;11.558;2022-12-10T01:23:44;12.55;;;8.27;;
30287;SDS011;17103;48.316;11.558;2022-12-10T01:26:13;15.55;;;9.40;;
30287;SDS011;17103;48.316;11.558;2022-12-10T01:28:41;16.90;;;10.20;;
30287;SDS011;17103;48.316;11.558;2022-12-10T01:31:09;14.43;;;10.05;;
30287;SDS011;17103;48.316;11.558;2022-12-10T01:33:39;15.30;;;9.98;;
30287;SDS011;17103;48.316;11.558;2022-12-10T01:36:07;12.65;;;8.02;;
30287;SDS011;17103;48.316;11.558;2022-12-10T01:38:36;12.82;;;8.52;;
30287;SDS011;17103;48.316;11.558;2022-12-10T01:41:02;11.98;;;8.30;;
30287;SDS011;17103;48.316;11.558;2022-12-10T01:43:29;13.07;;;8.70;;
30287;SDS011;17103;48.316;11.558;2022-12-10T01:46:18;13.32;;;9.05;;
30287;SDS011;17103;48.316;11.558;2022-12-10T01:48:45;12.05;;;8.02;;
30287;SDS011;17103;48.316;11.558;2022-12-10T01:51:12;11.68;;;8.25;;
30287;SDS011;17103;48.316;11.558;2022-12-10T01:53:39;13.63;;;8.93;;
30287;SDS011;17103;48.316;11.558;2022-12-10T01:56:11;12.32;;;8.05;;
30287;SDS011;17103;48.316;11.558;2022-12-10T01:58:37;14.45;;;9.80;;
30287;SDS011;17103;48.316;11.558;2022-12-10T02:09:58;16.23;;;9.68;;
30287;SDS011;17103;48.316;11.558;2022-12-10T02:12:46;11.90;;;8.43;;
30287;SDS011;17103;48.316;11.558;2022-12-10T02:18:14;11.82;;;8.07;;
30287;SDS011;17103;48.316;11.558;2022-12-10T02:20:53;12.65;;;8.25;;
30287;SDS011;17103;48.316;11.558;2022-12-10T02:23:26;15.18;;;9.35;;
30287;SDS011;17103;48.316;11.558;2022-12-10T02:29:05;12.00;;;8.80;;
30287;SDS011;17103;48.316;11.558;2022-12-10T02:32:11;14.10;;;9.40;;
30287;SDS011;17103;48.316;11.558;2022-12-10T02:35:00;14.13;;;8.93;;
30287;SDS011;17103;48.316;11.558;2022-12-10T02:37:39;11.27;;;7.95;;
30287;SDS011;17103;48.316;11.558;2022-12-10T02:40:13;13.25;;;8.35;;
30287;SDS011;17103;48.316;11.558;2022-12-10T02:45:10;12.27;;;8.43;;
30287;SDS011;17103;48.316;11.558;2022-12-10T02:47:36;11.82;;;8.45;;
30287;SDS011;17103;48.316;11.558;2022-12-10T02:50:04;12.07;;;8.20;;
30287;SDS011;17103;48.316;11.558;2022-12-10T02:52:32;14.10;;;9.55;;
30287;SDS011;17103;48.316;11.558;2022-12-10T02:54:58;12.60;;;8.85;;
30287;SDS011;17103;48.316;11.558;2022-12-10T03:00:28;14.07;;;9.60;;
30287;SDS011;17103;48.316;11.558;2022-12-10T03:03:08;11.10;;;7.50;;
30287;SDS011;17103;48.316;11.558;2022-12-10T03:08:39;13.40;;;8.88;;
30287;SDS011;17103;48.316;11.558;2022-12-10T03:11:27;15.90;;;9.85;;
30287;SDS011;17103;48.316;11.558;2022-12-10T03:13:58;12.82;;;8.52;;
30287;SDS011;17103;48.316;11.558;2022-12-10T03:16:47;20.40;;;9.70;;
30287;SDS011;17103;48.316;11.558;2022-12-10T03:19:19;15.65;;;9.80;;
30287;SDS011;17103;48.316;11.558;2022-12-10T03:21:51;13.35;;;8.50;;
30287;SDS011;17103;48.316;11.558;2022-12-10T03:24:20;12.55;;;8.70;;
30287;SDS011;17103;48.316;11.558;2022-12-10T03:26:47;12.18;;;8.45;;
30287;SDS011;17103;48.316;11.558;2022-12-10T03:29:15;12.98;;;8.40;;
30287;SDS011;17103;48.316;11.558;2022-12-10T03:32:08;13.10;;;7.72;;
30287;SDS011;17103;48.316;11.558;2022-12-10T03:34:34;14.18;;;8.52;;
30287;SDS011;17103;48.316;11.558;2022-12-10T03:37:01;12.45;;;8.25;;
30287;SDS011;17103;48.316;11.558;2022-12-10T03:39:29;11.95;;;8.48;;
30287;SDS011;17103;48.316;11.558;2022-12-10T03:41:56;11.75;;;8.50;;
30287;SDS011;17103;48.316;11.558;2022-12-10T03:44:28;13.98;;;8.95;;
30287;SDS011;17103;48.316;11.558;2022-12-10T03:49:26;12.70;;;8.43;;
30287;SDS011;17103;48.316;11.558;2022-12-10T03:51:52;11.23;;;7.75;;
30287;SDS011;17103;48.316;11.558;2022-12-10T03:54:18;12.15;;;8.68;;
30287;SDS011;17103;48.316;11.558;2022-12-10T03:56:44;12.98;;;8.65;;
30287;SDS011;17103;48.316;11.558;2022-12-10T03:59:10;11.60;;;7.47;;
30287;SDS011;17103;48.316;11.558;2022-12-10T04:01:37;12.95;;;8.68;;
30287;SDS011;17103;48.316;11.558;2022-12-10T04:04:04;15.45;;;8.77;;
30287;SDS011;17103;48.316;11.558;2022-12-10T04:08:59;13.45;;;8.60;;
30287;SDS011;17103;48.316;11.558;2022-12-10T04:11:26;14.93;;;9.60;;
30287;SDS011;17103;48.316;11.558;2022-12-10T04:13:53;16.70;;;11.20;;
30287;SDS011;17103;48.316;11.558;2022-12-10T04:16:37;13.35;;;9.52;;
30287;SDS011;17103;48.316;11.558;2022-12-10T04:19:09;14.65;;;9.07;;
30287;SDS011;17103;48.316;11.558;2022-12-10T04:21:37;12.75;;;8.18;;
30287;SDS011;17103;48.316;11.558;2022-12-10T04:24:24;13.50;;;8.10;;
30287;SDS011;17103;48.316;11.558;2022-12-10T04:27:12;13.60;;;8.90;;
30287;SDS011;17103;48.316;11.558;2022-12-10T04:29:58;12.93;;;8.95;;
30287;SDS011;17103;48.316;11.558;2022-12-10T04:32:26;12.23;;;8.05;;
30287;SDS011;17103;48.316;11.558;2022-12-10T04:37:21;14.60;;;8.57;;
30287;SDS011;17103;48.316;11.558;2022-12-10T04:39:48;13.77;;;9.00;;
30287;SDS011;17103;48.316;11.558;2022-12-10T04:42:20;12.10;;;8.13;;
30287;SDS011;17103;48.316;11.558;2022-12-10T04:44:46;13.65;;;9.05;;
30287;SDS011;17103;48.316;11.558;2022-12-10T04:47:12;13.23;;;9.05;;
30287;SDS011;17103;48.316;11.558;2022-12-10T04:49:38;13.02;;;9.57;;
30287;SDS011;17103;48.316;11.558;2022-12-10T04:52:05;13.05;;;8.55;;
30287;SDS011;17103;48.316;11.558;2022-12-10T04:54:33;13.55;;;8.82;;
30287;SDS011;17103;48.316;11.558;2022-12-10T04:57:01;13.30;;;8.68;;
30287;SDS011;17103;48.316;11.558;2022-12-10T04:59:26;14.20;;;9.35;;
30287;SDS011;17103;48.316;11.558;2022-12-10T05:01:52;15.38;;;8.88;;
30287;SDS011;17103;48.316;11.558;2022-12-10T05:04:18;13.23;;;8.73;;
30287;SDS011;17103;48.316;11.558;2022-12-10T05:06:47;14.43;;;9.13;;
30287;SDS011;17103;48.316;11.558;2022-12-10T05:09:16;14.30;;;9.05;;
30287;SDS011;17103;48.316;11.558;2022-12-10T05:11:44;12.27;;;8.27;;
30287;SDS011;17103;48.316;11.558;2022-12-10T05:14:16;13.30;;;9.32;;
30287;SDS011;17103;48.316;11.558;2022-12-10T05:16:42;13.50;;;8.77;;
30287;SDS011;17103;48.316;11.558;2022-12-10T05:19:13;13.40;;;9.48;;
30287;SDS011;17103;48.316;11.558;2022-12-10T05:21:38;25.33;;;9.23;;
30287;SDS011;17103;48.316;11.558;2022-12-10T05:24:24;13.88;;;8.57;;
30287;SDS011;17103;48.316;11.558;2022-12-10T05:26:51;14.93;;;8.77;;
30287;SDS011;17103;48.316;11.558;2022-12-10T05:29:18;14.05;;;8.98;;
30287;SDS011;17103;48.316;11.558;2022-12-10T05:31:45;13.55;;;9.13;;
30287;SDS011;17103;48.316;11.558;2022-12-10T05:34:12;13.48;;;8.82;;
30287;SDS011;17103;48.316;11.558;2022-12-10T05:36:38;14.93;;;10.07;;
30287;SDS011;17103;48.316;11.558;2022-12-10T05:39:04;15.18;;;10.85;;
30287;SDS011;17103;48.316;11.558;2022-12-10T05:41:31;14.68;;;9.30;;
30287;SDS011;17103;48.316;11.558;2022-12-10T05:44:00;17.27;;;10.95;;
30287;SDS011;17103;48.316;11.558;2022-12-10T05:46:27;15.63;;;9.57;;
30287;SDS011;17103;48.316;11.558;2022-12-10T05:48:54;16.35;;;10.20;;
30287;SDS011;17103;48.316;11.558;2022-12-10T05:51:28;16.98;;;10.35;;
30287;SDS011;17103;48.316;11.558;2022-12-10T05:53:59;13.80;;;10.50;;
30287;SDS011;17103;48.316;11.558;2022-12-10T05:56:33;15.48;;;9.90;;
30287;SDS011;17103;48.316;11.558;2022-12-10T05:59:00;17.52;;;10.88;;
30287;SDS011;17103;48.316;11.558;2022-12-10T06:01:31;16.38;;;10.85;;
30287;SDS011;17103;48.316;11.558;2022-12-10T06:04:00;18.48;;;10.88;;
30287;SDS011;17103;48.316;11.558;2022-12-10T06:06:29;19.20;;;11.02;;
30287;SDS011;17103;48.316;11.558;2022-12-10T06:08:56;14.38;;;9.40;;
30287;SDS011;17103;48.316;11.558;2022-12-10T06:11:24;16.67;;;10.23;;
30287;SDS011;17103;48.316;11.558;2022-12-10T06:13:52;19.52;;;11.23;;
30287;SDS011;17103;48.316;11.558;2022-12-10T06:16:19;14.15;;;10.00;;
30287;SDS011;17103;48.316;11.558;2022-12-10T06:18:45;15.90;;;9.90;;
30287;SDS011;17103;48.316;11.558;2022-12-10T06:21:12;16.73;;;10.57;;
30287;SDS011;17103;48.316;11.558;2022-12-10T06:23:40;19.05;;;10.85;;
30287;SDS011;17103;48.316;11.558;2022-12-10T06:26:17;16.27;;;10.90;;
30287;SDS011;17103;48.316;11.558;2022-12-10T06:28:51;16.08;;;9.85;;
30287;SDS011;17103;48.316;11.558;2022-12-10T06:31:18;16.52;;;9.50;;
30287;SDS011;17103;48.316;11.558;2022-12-10T06:33:46;18.08;;;11.30;;
30287;SDS011;17103;48.316;11.558;2022-12-10T06:36:13;18.50;;;10.77;;
30287;SDS011;17103;48.316;11.558;2022-12-10T06:38:44;19.42;;;11.07;;
30287;SDS011;17103;48.316;11.558;2022-12-10T06:41:12;16.30;;;11.45;;
30287;SDS011;17103;48.316;11.558;2022-12-10T06:43:41;15.32;;;10.48;;
30287;SDS011;17103;48.316;11.558;2022-12-10T06:46:08;15.88;;;10.95;;
30287;SDS011;17103;48.316;11.558;2022-12-10T06:48:39;18.70;;;11.13;;
30287;SDS011;17103;48.316;11.558;2022-12-10T06:51:06;19.85;;;10.40;;
30287;SDS011;17103;48.316;11.558;2022-12-10T06:53:32;16.63;;;10.05;;
30287;SDS011;17103;48.316;11.558;2022-12-10T06:56:00;16.98;;;10.57;;
30287;SDS011;17103;48.316;11.558;2022-12-10T06:58:30;17.90;;;10.43;;
30287;SDS011;17103;48.316;11.558;2022-12-10T07:01:06;16.40;;;10.75;;
30287;SDS011;17103;48.316;11.558;2022-12-10T07:03:33;19.42;;;12.20;;
30287;SDS011;17103;48.316;11.558;2022-12-10T07:05:59;20.38;;;12.50;;
30287;SDS011;17103;48.316;11.558;2022-12-10T07:08:26;19.52;;;12.70;;
30287;SDS011;17103;48.316;11.558;2022-12-10T07:10:52;21.17;;;12.93;;
30287;SDS011;17103;48.316;11.558;2022-12-10T07:13:18;19.20;;;12.23;;
30287;SDS011;17103;48.316;11.558;2022-12-10T07:15:44;16.33;;;11.23;;
30287;SDS011;17103;48.316;11.558;2022-12-10T07:18:09;21.23;;;13.43;;
30287;SDS011;17103;48.316;11.558;2022-12-10T07:20:35;19.85;;;12.00;;
30287;SDS011;17103;48.316;11.558;2022-12-10T07:23:01;21.00;;;12.80;;
30287;SDS011;17103;48.316;11.558;2022-12-10T07:25:27;19.90;;;12.93;;
30287;SDS011;17103;48.316;11.558;2022-12-10T07:27:52;22.45;;;13.57;;
30287;SDS011;17103;48.316;11.558;2022-12-10T07:30:18;19.05;;;12.35;;
30287;SDS011;17103;48.316;11.558;2022-12-10T07:32:44;19.77;;;12.38;;
30287;SDS011;17103;48.316;11.558;2022-12-10T07:35:10;23.38;;;13.55;;
30287;SDS011;17103;48.316;11.558;2022-12-10T07:37:36;19.98;;;12.70;;
30287;SDS011;17103;48.316;11.558;2022-12-10T07:40:02;20.27;;;12.75;;
30287;SDS011;17103;48.316;11.558;2022-12-10T07:42:28;19.50;;;12.95;;
30287;SDS011;17103;48.316;11.558;2022-12-10T07:44:54;26.33;;;14.68;;
30287;SDS011;17103;48.316;11.558;2022-12-10T07:47:19;20.95;;;13.05;;
30287;SDS011;17103;48.316;11.558;2022-12-10T07:49:45;22.77;;;13.07;;
30287;SDS011;17103;48.316;11.558;2022-12-10T07:52:11;23.25;;;13.90;;
30287;SDS011;17103;48.316;11.558;2022-12-10T07:54:36;21.42;;;13.38;;
30287;SDS011;17103;48.316;11.558;2022-12-10T07:57:02;23.85;;;14.18;;
30287;SDS011;17103;48.316;11.558;2022-12-10T07:59:28;23.38;;;14.00;;
30287;SDS011;17103;48.316;11.558;2022-12-10T08:01:54;23.42;;;13.93;;
30287;SDS011;17103;48.316;11.558;2022-12-10T08:04:20;23.90;;;15.48;;
30287;SDS011;17103;48.316;11.558;2022-12-10T08:06:45;32.42;;;18.35;;
30287;SDS011;17103;48.316;11.558;2022-12-10T08:09:12;26.27;;;15.45;;
30287;SDS011;17103;48.316;11.558;2022-12-10T08:11:38;23.88;;;14.10;;
30287;SDS011;17103;48.316;11.558;2022-12-10T08:14:04;23.67;;;13.38;;
30287;SDS011;17103;48.316;11.558;2022-12-10T08:16:30;23.33;;;13.25;;
30287;SDS011;17103;48.316;11.558;2022-12-10T08:18:57;22.85;;;13.73;;
30287;SDS011;17103;48.316;11.558;2022-12-10T08:21:25;23.08;;;13.35;;
30287;SDS011;17103;48.316;11.558;2022-12-10T08:23:53;24.35;;;13.80;;
30287;SDS011;17103;48.316;11.558;2022-12-10T08:26:20;23.17;;;12.85;;
30287;SDS011;17103;48.316;11.558;2022-12-10T08:28:48;20.83;;;13.02;;
30287;SDS011;17103;48.316;11.558;2022-12-10T08:31:15;22.92;;;14.27;;
30287;SDS011;17103;48.316;11.558;2022-12-10T08:33:42;23.77;;;12.73;;
30287;SDS011;17103;48.316;11.558;2022-12-10T08:36:08;25.50;;;13.93;;
30287;SDS011;17103;48.316;11.558;2022-12-10T08:38:37;24.75;;;14.73;;
30287;SDS011;17103;48.316;11.558;2022-12-10T08:41:11;26.52;;;15.00;;
30287;SDS011;17103;48.316;11.558;2022-12-10T08:43:38;24.92;;;14.13;;
30287;SDS011;17103;48.316;11.558;2022-12-10T08:46:04;27.00;;;15.32;;
30287;SDS011;17103;48.316;11.558;2022-12-10T08:48:31;23.95;;;13.95;;
30287;SDS011;17103;48.316;11.558;2022-12-10T08:50:57;28.98;;;15.90;;
30287;SDS011;17103;48.316;11.558;2022-12-10T08:53:23;26.98;;;14.77;;
30287;SDS011;17103;48.316;11.558;2022-12-10T08:55:49;28.25;;;14.65;;
30287;SDS011;17103;48.316;11.558;2022-12-10T08:58:18;24.33;;;14.30;;
30287;SDS011;17103;48.316;11.558;2022-12-10T09:00:44;23.92;;;14.13;;
30287;SDS011;17103;48.316;11.558;2022-12-10T09:03:10;24.70;;;14.45;;
30287;SDS011;17103;48.316;11.558;2022-12-10T09:05:36;25.92;;;14.82;;
30287;SDS011;17103;48.316;11.558;2022-12-10T09:08:02;24.00;;;14.50;;
30287;SDS011;17103;48.316;11.558;2022-12-10T09:10:28;20.95;;;11.88;;
30287;SDS011;17103;48.316;11.558;2022-12-10T09:12:54;22.83;;;13.43;;
30287;SDS011;17103;48.316;11.558;2022-12-10T09:15:21;26.63;;;15.10;;
30287;SDS011;17103;48.316;11.558;2022-12-10T09:17:47;25.30;;;14.25;;
30287;SDS011;17103;48.316;11.558;2022-12-10T09:20:13;23.63;;;14.68;;
30287;SDS011;17103;48.316;11.558;2022-12-10T09:22:39;25.67;;;14.35;;
30287;SDS011;17103;48.316;11.558;2022-12-10T09:25:06;24.65;;;14.43;;
30287;SDS011;17103;48.316;11.558;2022-12-10T09:27:34;28.85;;;16.13;;
30287;SDS011;17103;48.316;11.558;2022-12-10T09:30:02;28.20;;;14.73;;
30287;SDS011;17103;48.316;11.558;2022-12-10T09:32:30;23.30;;;14.40;;
30287;SDS011;17103;48.316;11.558;2022-12-10T09:34:55;27.25;;;13.82;;
30287;SDS011;17103;48.316;11.558;2022-12-10T09:37:21;23.50;;;12.50;;
30287;SDS011;17103;48.316;11.558;2022-12-10T09:39:47;22.42;;;13.00;;
30287;SDS011;17103;48.316;11.558;2022-12-10T09:42:26;23.15;;;13.80;;
30287;SDS011;17103;48.316;11.558;2022-12-10T09:52:48;24.65;;;14.20;;
30287;SDS011;17103;48.316;11.558;2022-12-10T09:55:17;21.90;;;13.63;;
30287;SDS011;17103;48.316;11.558;2022-12-10T09:57:51;23.92;;;14.10;;
30287;SDS011;17103;48.316;11.558;2022-12-10T10:02:44;23.73;;;14.05;;
30287;SDS011;17103;48.316;11.558;2022-12-10T10:05:19;19.35;;;12.77;;
30287;SDS011;17103;48.316;11.558;2022-12-10T10:07:55;24.58;;;13.75;;
30287;SDS011;17103;48.316;11.558;2022-12-10T10:10:35;24.65;;;13.65;;
30287;SDS011;17103;48.316;11.558;2022-12-10T10:13:21;23.17;;;13.98;;
30287;SDS011;17103;48.316;11.558;2022-12-10T10:16:16;22.70;;;13.93;;
30287;SDS011;17103;48.316;11.558;2022-12-10T10:18:46;24.42;;;14.23;;
30287;SDS011;17103;48.316;11.558;2022-12-10T10:21:21;25.27;;;14.73;;
30287;SDS011;17103;48.316;11.558;2022-12-10T10:23:48;24.33;;;14.70;;
30287;SDS011;17103;48.316;11.558;2022-12-10T10:26:15;23.13;;;13.52;;
30287;SDS011;17103;48.316;11.558;2022-12-10T10:28:41;25.80;;;14.75;;
30287;SDS011;17103;48.316;11.558;2022-12-10T10:31:19;25.50;;;15.00;;
30287;SDS011;17103;48.316;11.558;2022-12-10T10:33:50;25.23;;;14.38;;
30287;SDS011;17103;48.316;11.558;2022-12-10T10:36:43;24.80;;;14.52;;
30287;SDS011;17103;48.316;11.558;2022-12-10T10:41:41;26.23;;;15.13;;
30287;SDS011;17103;48.316;11.558;2022-12-10T10:44:14;24.95;;;14.77;;
30287;SDS011;17103;48.316;11.558;2022-12-10T10:46:42;26.67;;;16.17;;
30287;SDS011;17103;48.316;11.558;2022-12-10T10:49:28;26.23;;;15.45;;
30287;SDS011;17103;48.316;11.558;2022-12-10T10:52:00;24.58;;;14.30;;
30287;SDS011;17103;48.316;11.558;2022-12-10T10:54:31;26.33;;;13.40;;
30287;SDS011;17103;48.316;11.558;2022-12-10T10:59:56;26.42;;;14.88;;
30287;SDS011;17103;48.316;11.558;2022-12-10T11:02:30;23.48;;;13.82;;
30287;SDS011;17103;48.316;11.558;2022-12-10T11:05:07;29.08;;;15.40;;
30287;SDS011;17103;48.316;11.558;2022-12-10T11:07:49;26.67;;;16.00;;
30287;SDS011;17103;48.316;11.558;2022-12-10T11:10:26;24.67;;;14.30;;
30287;SDS011;17103;48.316;11.558;2022-12-10T11:12:54;27.27;;;15.70;;
30287;SDS011;17103;48.316;11.558;2022-12-10T11:15:32;25.38;;;15.02;;
30287;SDS011;17103;48.316;11.558;2022-12-10T11:18:30;28.92;;;16.80;;
30287;SDS011;17103;48.316;11.558;2022-12-10T11:21:05;26.67;;;15.50;;
30287;SDS011;17103;48.316;11.558;2022-12-10T11:23:40;26.23;;;13.95;;
30287;SDS011;17103;48.316;11.558;2022-12-10T11:26:11;28.70;;;16.95;;
30287;SDS011;17103;48.316;11.558;2022-12-10T11:45:17;27.75;;;15.60;;
30287;SDS011;17103;48.316;11.558;2022-12-10T11:48:24;30.88;;;16.63;;
30287;SDS011;17103;48.316;11.558;2022-12-10T11:57:09;30.77;;;16.73;;
30287;SDS011;17103;48.316;11.558;2022-12-10T12:10:52;30.90;;;17.55;;
30287;SDS011;17103;48.316;11.558;2022-12-10T12:16:18;30.65;;;15.82;;
30287;SDS011;17103;48.316;11.558;2022-12-10T12:19:01;31.98;;;18.45;;
30287;SDS011;17103;48.316;11.558;2022-12-10T12:21:34;27.55;;;16.83;;
30287;SDS011;17103;48.316;11.558;2022-12-10T12:24:17;28.45;;;15.82;;
30287;SDS011;17103;48.316;11.558;2022-12-10T12:26:53;28.13;;;16.60;;
30287;SDS011;17103;48.316;11.558;2022-12-10T12:35:16;27.45;;;17.10;;
30287;SDS011;17103;48.316;11.558;2022-12-10T12:37:56;30.17;;;16.27;;
30287;SDS011;17103;48.316;11.558;2022-12-10T12:46:09;25.00;;;14.77;;
30287;SDS011;17103;48.316;11.558;2022-12-10T12:51:26;28.02;;;15.82;;
30287;SDS011;17103;48.316;11.558;2022-12-10T12:54:04;24.10;;;14.10;;
30287;SDS011;17103;48.316;11.558;2022-12-10T13:04:08;30.23;;;17.55;;
30287;SDS011;17103;48.316;11.558;2022-12-10T13:06:36;29.20;;;15.85;;
30287;SDS011;17103;48.316;11.558;2022-12-10T13:17:35;44.45;;;22.13;;
30287;SDS011;17103;48.316;11.558;2022-12-10T13:22:59;82.32;;;41.05;;
30287;SDS011;17103;48.316;11.558;2022-12-10T13:25:54;35.65;;;21.83;;
30287;SDS011;17103;48.316;11.558;2022-12-10T13:31:17;35.95;;;20.10;;
30287;SDS011;17103;48.316;11.558;2022-12-10T13:33:47;34.63;;;17.90;;
30287;SDS011;17103;48.316;11.558;2022-12-10T13:36:37;29.98;;;16.85;;
30287;SDS011;17103;48.316;11.558;2022-12-10T13:42:45;25.35;;;15.15;;
30287;SDS011;17103;48.316;11.558;2022-12-10T13:45:38;30.23;;;15.70;;
30287;SDS011;17103;48.316;11.558;2022-12-10T13:48:24;28.88;;;16.80;;
30287;SDS011;17103;48.316;11.558;2022-12-10T13:51:08;30.85;;;16.70;;
30287;SDS011;17103;48.316;11.558;2022-12-10T13:56:34;27.40;;;15.77;;
30287;SDS011;17103;48.316;11.558;2022-12-10T13:59:23;32.08;;;17.33;;
30287;SDS011;17103;48.316;11.558;2022-12-10T14:01:59;26.58;;;16.50;;
30287;SDS011;17103;48.316;11.558;2022-12-10T14:07:37;40.75;;;24.83;;
30287;SDS011;17103;48.316;11.558;2022-12-10T14:10:04;31.83;;;18.65;;
30287;SDS011;17103;48.316;11.558;2022-12-10T14:12:38;37.42;;;24.23;;
30287;SDS011;17103;48.316;11.558;2022-12-10T14:15:07;34.45;;;21.98;;
30287;SDS011;17103;48.316;11.558;2022-12-10T14:17:42;32.72;;;19.40;;
30287;SDS011;17103;48.316;11.558;2022-12-10T14:20:19;32.67;;;19.58;;
30287;SDS011;17103;48.316;11.558;2022-12-10T14:22:52;31.70;;;18.42;;
30287;SDS011;17103;48.316;11.558;2022-12-10T14:25:20;29.55;;;18.17;;
30287;SDS011;17103;48.316;11.558;2022-12-10T14:27:51;33.92;;;17.90;;
30287;SDS011;17103;48.316;11.558;2022-12-10T14:30:19;37.30;;;20.80;;
30287;SDS011;17103;48.316;11.558;2022-12-10T14:32:47;27.92;;;15.77;;
30287;SDS011;17103;48.316;11.558;2022-12-10T14:35:15;38.58;;;22.95;;
30287;SDS011;17103;48.316;11.558;2022-12-10T14:37:45;30.65;;;17.33;;
30287;SDS011;17103;48.316;11.558;2022-12-10T14:40:17;24.85;;;14.75;;
30287;SDS011;17103;48.316;11.558;2022-12-10T14:42:48;30.15;;;18.45;;
30287;SDS011;17103;48.316;11.558;2022-12-10T14:45:15;27.67;;;16.52;;
30287;SDS011;17103;48.316;11.558;2022-12-10T14:47:41;36.33;;;21.05;;
30287;SDS011;17103;48.316;11.558;2022-12-10T14:50:11;31.00;;;20.10;;
30287;SDS011;17103;48.316;11.558;2022-12-10T14:52:40;24.88;;;14.40;;
30287;SDS011;17103;48.316;11.558;2022-12-10T14:55:16;36.33;;;19.85;;
30287;SDS011;17103;48.316;11.558;2022-12-10T14:57:50;40.60;;;22.17;;
30287;SDS011;17103;48.316;11.558;2022-12-10T15:00:25;41.75;;;23.63;;
30287;SDS011;17103;48.316;11.558;2022-12-10T15:02:54;36.97;;;21.13;;
30287;SDS011;17103;48.316;11.558;2022-12-10T15:05:27;42.13;;;22.73;;
30287;SDS011;17103;48.316;11.558;2022-12-10T15:08:00;39.92;;;23.67;;
30287;SDS011;17103;48.316;11.558;2022-12-10T15:10:35;50.33;;;29.58;;
30287;SDS011;17103;48.316;11.558;2022-12-10T15:13:04;37.33;;;21.33;;
30287;SDS011;17103;48.316;11.558;2022-12-10T15:15:35;45.47;;;27.17;;
30287;SDS011;17103;48.316;11.558;2022-12-10T15:20:44;29.33;;;17.48;;
30287;SDS011;17103;48.316;11.558;2022-12-10T15:28:23;27.20;;;16.92;;
30287;SDS011;17103;48.316;11.558;2022-12-10T15:33:54;32.38;;;18.05;;
30287;SDS011;17103;48.316;11.558;2022-12-10T15:47:03;30.45;;;18.25;;
30287;SDS011;17103;48.316;11.558;2022-12-10T15:49:45;26.83;;;15.75;;
30287;SDS011;17103;48.316;11.558;2022-12-10T15:52:12;28.77;;;17.77;;
30287;SDS011;17103;48.316;11.558;2022-12-10T15:54:40;30.55;;;17.95;;
30287;SDS011;17103;48.316;11.558;2022-12-10T15:57:20;33.05;;;18.10;;
30287;SDS011;17103;48.316;11.558;2022-12-10T15:59:57;27.20;;;16.60;;
30287;SDS011;17103;48.316;11.558;2022-12-10T16:04:53;33.72;;;18.52;;
30287;SDS011;17103;48.316;11.558;2022-12-10T16:07:19;32.50;;;17.85;;
30287;SDS011;17103;48.316;11.558;2022-12-10T16:09:45;31.17;;;19.00;;
30287;SDS011;17103;48.316;11.558;2022-12-10T16:12:12;28.65;;;17.10;;
30287;SDS011;17103;48.316;11.558;2022-12-10T16:14:45;28.85;;;16.35;;
30287;SDS011;17103;48.316;11.558;2022-12-10T16:17:14;31.23;;;18.00;;
30287;SDS011;17103;48.316;11.558;2022-12-10T16:19:40;27.27;;;16.92;;
30287;SDS011;17103;48.316;11.558;2022-12-10T16:22:06;35.20;;;18.88;;
30287;SDS011;17103;48.316;11.558;2022-12-10T16:24:32;25.45;;;14.38;;
30287;SDS011;17103;48.316;11.558;2022-12-10T16:26:58;26.67;;;15.23;;
30287;SDS011;17103;48.316;11.558;2022-12-10T16:29:23;25.77;;;13.90;;
30287;SDS011;17103;48.316;11.558;2022-12-10T16:31:49;29.38;;;16.05;;
30287;SDS011;17103;48.316;11.558;2022-12-10T16:34:15;27.02;;;16.17;;
30287;SDS011;17103;48.316;11.558;2022-12-10T16:36:40;27.02;;;15.55;;
30287;SDS011;17103;48.316;11.558;2022-12-10T16:39:06;24.80;;;14.02;;
30287;SDS011;17103;48.316;11.558;2022-12-10T16:41:32;27.67;;;15.23;;
30287;SDS011;17103;48.316;11.558;2022-12-10T16:43:58;29.67;;;16.35;;
30287;SDS011;17103;48.316;11.558;2022-12-10T16:46:23;30.25;;;16.02;;
30287;SDS011;17103;48.316;11.558;2022-12-10T16:48:49;35.08;;;19.38;;
30287;SDS011;17103;48.316;11.558;2022-12-10T16:51:21;32.45;;;18.20;;
30287;SDS011;17103;48.316;11.558;2022-12-10T16:53:51;41.67;;;21.50;;
30287;SDS011;17103;48.316;11.558;2022-12-10T16:56:17;49.80;;;24.10;;
30287;SDS011;17103;48.316;11.558;2022-12-10T16:58:43;44.38;;;23.65;;
30287;SDS011;17103;48.316;11.558;2022-12-10T17:03:44;28.23;;;16.27;;
30287;SDS011;17103;48.316;11.558;2022-12-10T17:06:10;26.95;;;15.05;;
30287;SDS011;17103;48.316;11.558;2022-12-10T17:08:36;25.48;;;14.88;;
30287;SDS011;17103;48.316;11.558;2022-12-10T17:14:31;26.70;;;15.57;;